Time;durP1;ratioP1;P1;durP2;ratioP2;P2;SDS_P1;SDS_P2;PMS_P1;PMS_P2;Temp;Humidity;BMP_temperature;BMP_pressure;BME280_temperature;BME280_humidity;BME280_pressure;Samples;Min_cycle;Max_cycle;Signal;HPM_P1;HPM_P2
2024/03/23 00:01:50;;;;;;;26.80;19.60;;;;;;;9.28;84.23;99285.64;103257;1254;138921;-76
2024/03/23 00:04:15;;;;;;;;;;;;;;;9.27;84.31;99285.48;103574;1253;106806;-76
2024/03/23 00:06:42;;;;;;;29.10;19.80;;;;;;;9.23;84.67;99285.16;103520;1254;97818;-76
2024/03/23 00:09:07;;;;;;;;;;;;;;;9.20;84.94;99285.81;103447;1251;138754;-76
2024/03/23 00:11:33;;;;;;;25.90;18.90;;;;;;;9.16;85.16;99285.11;103508;1255;107856;-74
2024/03/23 00:14:00;;;;;;;30.00;20.50;;;;;;;9.13;85.48;99284.36;103438;1253;138508;-76
2024/03/23 00:16:25;;;;;;;;;;;;;;;9.10;85.57;99279.10;103560;1251;107925;-77
2024/03/23 00:18:52;;;;;;;28.80;19.70;;;;;;;9.08;85.86;99275.87;103494;1251;97794;-76
2024/03/23 00:21:18;;;;;;;28.60;20.70;;;;;;;9.06;86.18;99272.35;103407;1256;138170;-76
2024/03/23 00:23:43;;;;;;;;;;;;;;;9.04;86.52;99270.85;103483;1251;106682;-76
2024/03/23 00:26:09;;;;;;;28.80;21.30;;;;;;;9.02;86.61;99264.73;103420;1255;124751;-76
2024/03/23 00:28:35;;;;;;;;;;;;;;;9.02;86.87;99266.10;103534;1256;108526;-76
2024/03/23 00:31:01;;;;;;;29.50;21.10;;;;;;;8.99;87.24;99263.79;103487;1252;97882;-76
2024/03/23 00:33:28;;;;;;;29.10;21.10;;;;;;;8.97;87.30;99263.85;103471;1251;138088;-76
2024/03/23 00:35:52;;;;;;;;;;;;;;;8.95;87.60;99254.75;103523;1256;108019;-76
2024/03/23 00:38:20;;;;;;;29.40;22.50;;;;;;;8.92;87.81;99255.20;103456;1251;124482;-75
2024/03/23 00:40:46;;;;;;;31.00;22.60;;;;;;;8.91;88.02;99254.77;103445;1254;108092;-76
2024/03/23 00:43:11;;;;;;;;;;;;;;;8.91;88.25;99254.59;103518;1257;97566;-74
2024/03/23 00:45:38;;;;;;;31.30;22.40;;;;;;;8.88;88.42;99248.63;103532;1254;124224;-76
2024/03/23 00:48:05;;;;;;;33.30;23.60;;;;;;;8.87;88.85;99243.85;103739;1253;107088;-76
2024/03/23 00:50:31;;;;;;;34.60;23.30;;;;;;;8.84;89.13;99237.02;103654;1256;138371;-76
2024/03/23 00:52:58;;;;;;;36.60;23.40;;;;;;;8.80;89.40;99227.83;103445;1256;107681;-76
2024/03/23 00:55:24;;;;;;;33.00;23.70;;;;;;;8.79;89.66;99225.95;103507;1256;97816;-75
2024/03/23 00:57:50;;;;;;;33.90;23.90;;;;;;;8.78;89.79;99218.71;103737;1256;138177;-76
2024/03/23 01:00:18;;;;;;;32.60;24.00;;;;;;;8.77;90.07;99217.69;103482;1256;107630;-76
2024/03/23 01:02:45;;;;;;;34.10;23.70;;;;;;;8.75;90.12;99217.26;104669;1251;138291;-77
2024/03/23 01:05:10;;;;;;;;;;;;;;;8.74;90.35;99208.64;103568;1255;107807;-76
2024/03/23 01:07:36;;;;;;;34.50;23.50;;;;;;;8.70;90.49;99214.04;103484;1251;124932;-75
2024/03/23 01:10:03;;;;;;;37.30;24.60;;;;;;;8.68;90.88;99216.35;103524;1251;112652;-76
2024/03/23 01:12:30;;;;;;;32.60;23.80;;;;;;;8.69;91.23;99215.96;103486;1251;106577;-75
2024/03/23 01:14:54;;;;;;;;;;;;;;;8.68;91.40;99207.17;103409;1251;139182;-75
2024/03/23 01:17:21;;;;;;;36.20;25.10;;;;;;;8.65;91.74;99205.73;103530;1251;107902;-74
2024/03/23 01:19:46;;;;;;;;;;;;;;;8.63;92.13;99203.23;103467;1251;138652;-74
2024/03/23 01:22:12;;;;;;;39.20;25.50;;;;;;;8.61;92.40;99200.52;103493;1254;110477;-75
2024/03/23 01:24:37;;;;;;;;;;;;;;;8.61;92.42;99200.88;103489;1251;107867;-75
2024/03/23 01:27:04;;;;;;;34.60;24.70;;;;;;;8.60;92.61;99197.27;103450;1251;124486;-76
2024/03/23 01:29:30;;;;;;;37.90;25.80;;;;;;;8.59;92.97;99195.04;103495;1257;108139;-75
2024/03/23 01:31:56;;;;;;;;;;;;;;;8.59;92.96;99194.02;103418;1257;138361;-75
2024/03/23 01:34:22;;;;;;;37.00;25.70;;;;;;;8.58;93.28;99199.62;103565;1251;110470;-75
2024/03/23 01:36:49;;;;;;;37.00;26.10;;;;;;;8.56;93.34;99199.34;103488;1251;107186;-76
2024/03/23 01:39:14;;;;;;;;;;;;;;;8.57;93.48;99203.98;103461;1251;138331;-75
2024/03/23 01:41:42;;;;;;;35.20;25.80;;;;;;;8.54;93.95;99201.86;103565;1254;107745;-75
2024/03/23 01:44:09;;;;;;;39.00;27.30;;;;;;;8.53;93.93;99199.16;103457;1250;138460;-76
2024/03/23 01:46:35;;;;;;;38.20;26.30;;;;;;;8.50;94.33;99188.33;103609;1251;110375;-76
2024/03/23 01:49:02;;;;;;;40.00;26.80;;;;;;;8.55;94.37;99190.36;104882;1251;107524;-75
2024/03/23 01:51:29;;;;;;;43.90;28.60;;;;;;;8.57;94.51;99181.46;103485;1251;138717;-76
2024/03/23 01:53:57;;;;;;;39.10;25.90;;;;;;;8.58;94.66;99181.94;103452;1251;107802;-76
2024/03/23 01:56:24;;;;;;;37.80;26.70;;;;;;;8.58;95.00;99181.57;103444;1251;138334;-76
2024/03/23 01:58:51;;;;;;;39.40;28.00;;;;;;;8.57;94.92;99183.02;103590;1254;111610;-76
2024/03/23 02:01:15;;;;;;;;;;;;;;;8.58;95.13;99186.27;103512;1255;108178;-76
2024/03/23 02:03:42;;;;;;;38.70;26.90;;;;;;;8.57;95.12;99186.48;103537;1251;124810;-77
2024/03/23 02:06:09;;;;;;;37.80;27.10;;;;;;;8.56;95.26;99180.11;103444;1251;107488;-75
2024/03/23 02:08:35;;;;;;;39.00;27.90;;;;;;;8.58;95.47;99166.19;103469;1254;138261;-74
2024/03/23 02:11:02;;;;;;;46.30;28.40;;;;;;;8.59;95.51;99172.52;103567;1251;111836;-76
2024/03/23 02:13:28;;;;;;;40.70;28.30;;;;;;;8.61;95.50;99174.36;103560;1251;107645;-76
2024/03/23 02:15:55;;;;;;;37.80;27.10;;;;;;;8.61;95.68;99167.09;103610;1254;97689;-76
2024/03/23 02:18:20;;;;;;;;;;;;;;;8.62;95.80;99172.94;103499;1251;107070;-76
2024/03/23 02:20:46;;;;;;;37.60;26.70;;;;;;;8.62;96.02;99171.21;103442;1254;124319;-76
2024/03/23 02:23:15;;;;;;;;;;;;;;;8.62;96.04;99165.85;103548;1254;112585;-76
2024/03/23 02:25:41;;;;;;;41.40;27.30;;;;;;;8.62;96.18;99168.98;103495;1254;125468;-75
2024/03/23 02:28:08;;;;;;;38.50;27.40;;;;;;;8.62;96.43;99164.44;103615;1254;97781;-77
2024/03/23 02:30:35;;;;;;;39.80;27.10;;;;;;;8.61;96.63;99159.11;103475;1251;108478;-75
2024/03/23 02:33:01;;;;;;;38.80;28.00;;;;;;;8.62;96.71;99158.71;103405;1253;138213;-74
2024/03/23 02:35:26;;;;;;;;;;;;;;;8.64;96.87;99161.59;103749;1251;109757;-74
2024/03/23 02:37:54;;;;;;;39.60;27.60;;;;;;;8.63;96.98;99158.17;103521;1251;124426;-75
2024/03/23 02:40:21;;;;;;;39.00;27.50;;;;;;;8.63;97.06;99160.78;103585;1251;98447;-75
2024/03/23 02:42:48;;;;;;;43.50;29.30;;;;;;;8.63;97.34;99157.14;103609;1254;107474;-75
2024/03/23 02:45:14;;;;;;;41.00;29.30;;;;;;;8.64;97.52;99154.88;103445;1251;138410;-74
2024/03/23 02:47:41;;;;;;;42.50;29.40;;;;;;;8.65;97.75;99151.52;103605;1251;110923;-77
2024/03/23 02:50:10;;;;;;;40.20;28.90;;;;;;;8.65;97.88;99149.77;103416;1251;138460;-76
2024/03/23 02:52:36;;;;;;;43.40;31.00;;;;;;;8.66;97.89;99143.31;103641;1251;98374;-76
2024/03/23 02:55:03;;;;;;;43.70;30.10;;;;;;;8.68;98.17;99133.89;103528;1251;107079;-74
2024/03/23 02:57:29;;;;;;;41.40;30.30;;;;;;;8.69;98.28;99132.29;103466;1251;138324;-75
2024/03/23 02:59:55;;;;;;;;;;;;;;;8.69;98.53;99130.35;103542;1251;110725;-74
2024/03/23 03:02:21;;;;;;;39.40;28.00;;;;;;;8.68;98.74;99136.30;103406;1251;124936;-75
2024/03/23 03:04:48;;;;;;;42.90;30.10;;;;;;;8.67;98.79;99131.31;103580;1251;98444;-75
2024/03/23 03:07:15;;;;;;;40.50;28.90;;;;;;;8.68;98.92;99122.44;103515;1254;107612;-76
2024/03/23 03:09:41;;;;;;;41.90;29.20;;;;;;;8.70;99.15;99125.48;103328;1251;138582;-77
2024/03/23 03:12:09;;;;;;;41.40;29.10;;;;;;;8.70;99.27;99119.06;103530;1251;111252;-76
2024/03/23 03:14:35;;;;;;;40.00;29.00;;;;;;;8.69;99.26;99115.27;103469;1251;138212;-75
2024/03/23 03:17:00;;;;;;;;;;;;;;;8.69;99.31;99119.27;103606;1254;97673;-76
2024/03/23 03:19:27;;;;;;;39.90;27.60;;;;;;;8.67;99.53;99117.97;103531;1251;107099;-76
2024/03/23 03:21:53;;;;;;;41.70;30.10;;;;;;;8.66;99.85;99113.88;102741;1251;1003208;-76
2024/03/23 03:24:20;;;;;;;41.60;29.80;;;;;;;8.66;99.79;99117.83;103580;1251;110270;-77
2024/03/23 03:26:46;;;;;;;45.80;30.00;;;;;;;8.68;99.88;99119.48;103442;1254;138186;-75
2024/03/23 03:29:13;;;;;;;41.20;29.60;;;;;;;8.71;100.00;99118.50;103964;1254;97819;-75
2024/03/23 03:31:38;;;;;;;;;;;;;;;8.72;100.00;99121.91;103366;1257;138344;-74
2024/03/23 03:34:04;;;;;;;44.00;30.00;;;;;;;8.72;100.00;99122.45;103513;1254;97859;-75
2024/03/23 03:36:29;;;;;;;;;;;;;;;8.71;100.00;99121.78;103552;1254;110659;-75
2024/03/23 03:38:55;;;;;;;40.70;28.00;;;;;;;8.69;100.00;99126.54;103442;1251;124639;-75
2024/03/23 03:41:22;;;;;;;41.00;29.60;;;;;;;8.68;100.00;99127.45;103482;1254;98293;-76
2024/03/23 03:43:49;;;;;;;43.80;30.30;;;;;;;8.69;100.00;99123.61;103401;1251;138295;-75
2024/03/23 03:46:15;;;;;;;42.80;30.50;;;;;;;8.70;100.00;99122.17;103485;1250;98374;-76
2024/03/23 03:48:42;;;;;;;39.10;28.70;;;;;;;8.71;100.00;99120.92;103536;1251;111529;-76
2024/03/23 03:51:08;;;;;;;39.30;29.20;;;;;;;8.70;100.00;99115.92;103352;1254;138416;-74
2024/03/23 03:53:35;;;;;;;39.00;29.10;;;;;;;8.73;100.00;99113.04;103562;1251;97669;-75
2024/03/23 03:56:04;;;;;;;42.70;29.60;;;;;;;8.74;100.00;99112.80;103636;1253;138339;-74
2024/03/23 03:58:31;;;;;;;38.10;29.10;;;;;;;8.74;100.00;99114.52;103657;1251;97807;-74
2024/03/23 04:00:58;;;;;;;41.50;28.30;;;;;;;8.75;100.00;99110.51;103588;1251;111196;-74
2024/03/23 04:03:24;;;;;;;38.80;29.10;;;;;;;8.76;100.00;99106.48;103430;1251;138392;-75
2024/03/23 04:05:54;;;;;;;36.00;26.90;;;;;;;8.77;100.00;99107.83;103597;1250;99433;-75
2024/03/23 04:08:20;;;;;;;40.10;29.10;;;;;;;8.77;100.00;99108.50;103501;1251;138109;-77
2024/03/23 04:10:45;;;;;;;;;;;;;;;8.79;100.00;99103.05;103537;1251;97805;-77
2024/03/23 04:13:11;;;;;;;38.60;27.60;;;;;;;8.77;100.00;99104.52;103545;1254;110184;-77
2024/03/23 04:15:36;;;;;;;;;;;;;;;8.77;100.00;99105.76;103718;1251;138320;-76
2024/03/23 04:18:04;;;;;;;39.20;26.90;;;;;;;8.76;100.00;99099.19;103486;1250;97715;-76
2024/03/23 04:20:30;;;;;;;39.30;28.60;;;;;;;8.77;100.00;99100.53;103449;1257;138273;-77
2024/03/23 04:22:55;;;;;;;;;;;;;;;8.79;100.00;99092.83;103607;1250;98333;-75
2024/03/23 04:25:21;;;;;;;36.40;26.50;;;;;;;8.76;100.00;99089.33;103513;1251;109953;-75
2024/03/23 04:27:46;;;;;;;;;;;;;;;8.76;100.00;99084.64;103442;1251;138199;-75
2024/03/23 04:30:15;;;;;;;36.60;27.70;;;;;;;8.75;100.00;99081.55;103495;1251;97888;-75
2024/03/23 04:32:42;;;;;;;36.60;28.30;;;;;;;8.76;100.00;99078.25;103813;1249;138368;-74
2024/03/23 04:35:10;;;;;;;37.00;28.50;;;;;;;8.77;100.00;99074.02;103590;1251;97802;-74
2024/03/23 04:37:37;;;;;;;40.60;28.80;;;;;;;8.76;100.00;99069.20;103742;1251;138804;-76
2024/03/23 04:40:04;;;;;;;38.10;28.70;;;;;;;8.80;100.00;99077.20;104038;1250;107979;-76
2024/03/23 04:42:31;;;;;;;40.00;29.90;;;;;;;8.80;100.00;99075.99;103865;1251;97744;-76
2024/03/23 04:44:58;;;;;;;39.00;29.10;;;;;;;8.81;100.00;99075.94;103555;1250;138234;-76
2024/03/23 04:47:25;;;;;;;42.40;30.60;;;;;;;8.84;100.00;99074.10;103584;1250;97814;-76
2024/03/23 04:49:51;;;;;;;37.90;29.10;;;;;;;8.84;100.00;99069.75;103409;1254;138355;-76
2024/03/23 04:52:18;;;;;;;38.40;29.20;;;;;;;8.84;100.00;99066.11;103535;1251;107887;-76
2024/03/23 04:54:45;;;;;;;40.30;29.90;;;;;;;8.85;100.00;99058.97;103636;1250;98238;-75
2024/03/23 04:57:12;;;;;;;41.20;30.00;;;;;;;8.87;100.00;99045.88;103383;1255;139267;-76
2024/03/23 04:59:45;;;;;;;41.20;28.60;;;;;;;8.87;100.00;99039.45;103588;1254;97708;-76
2024/03/23 05:02:12;;;;;;;38.40;28.50;;;;;;;8.86;100.00;99049.06;103381;1250;138444;-75
2024/03/23 05:04:41;;;;;;;38.60;30.20;;;;;;;8.88;100.00;99051.36;103550;1254;108203;-76
2024/03/23 05:07:08;;;;;;;37.70;29.30;;;;;;;8.89;100.00;99045.44;103627;1251;97929;-76
2024/03/23 05:09:34;;;;;;;38.00;29.00;;;;;;;8.89;100.00;99043.35;104782;1250;139359;-76
2024/03/23 05:12:01;;;;;;;39.00;29.40;;;;;;;8.90;100.00;99050.77;103697;1251;97795;-76
2024/03/23 05:14:28;;;;;;;42.20;29.70;;;;;;;8.89;100.00;99052.86;103378;1250;138506;-76
2024/03/23 05:16:54;;;;;;;37.80;28.80;;;;;;;8.91;100.00;99053.32;103442;1254;136861;-75
2024/03/23 05:19:21;;;;;;;40.30;29.40;;;;;;;8.93;100.00;99057.37;103509;1253;98380;-76
2024/03/23 05:21:47;;;;;;;36.70;28.80;;;;;;;8.95;100.00;99056.59;103445;1254;138779;-75
2024/03/23 05:24:14;;;;;;;41.70;30.20;;;;;;;8.97;100.00;99051.84;103537;1254;96826;-75
2024/03/23 05:26:41;;;;;;;43.00;31.00;;;;;;;8.98;100.00;99043.98;103521;1250;138434;-76
2024/03/23 05:29:10;;;;;;;41.10;31.50;;;;;;;8.97;100.00;99043.48;103601;1254;108272;-75
2024/03/23 05:31:37;;;;;;;46.00;32.80;;;;;;;8.94;100.00;99045.55;103430;1254;138753;-75
2024/03/23 05:34:03;;;;;;;42.70;31.70;;;;;;;8.93;100.00;99045.08;103464;1251;107663;-75
2024/03/23 05:36:28;;;;;;;;;;;;;;;8.93;100.00;99042.98;103501;1254;97875;-76
2024/03/23 05:38:55;;;;;;;46.00;33.20;;;;;;;8.89;100.00;99036.58;103469;1254;124697;-75
2024/03/23 05:41:23;;;;;;;43.30;31.50;;;;;;;8.88;100.00;99041.14;103540;1254;108357;-74
2024/03/23 05:43:50;;;;;;;48.00;34.10;;;;;;;8.89;100.00;99035.04;103517;1254;138498;-76
2024/03/23 05:46:15;;;;;;;;;;;;;;;8.89;100.00;99040.05;103551;1252;108044;-76
2024/03/23 05:48:41;;;;;;;46.40;34.10;;;;;;;8.88;100.00;99038.38;103602;1250;97755;-76
2024/03/23 05:51:08;;;;;;;47.50;34.50;;;;;;;8.88;100.00;99029.38;103368;1250;138489;-77
2024/03/23 05:53:35;;;;;;;51.70;35.10;;;;;;;8.87;100.00;99029.24;103571;1251;107621;-76
2024/03/23 05:56:06;;;;;;;47.70;34.80;;;;;;;8.88;100.00;99031.10;103463;1251;138542;-76
2024/03/23 05:58:33;;;;;;;50.30;35.60;;;;;;;8.88;100.00;99031.80;103600;1251;107703;-76
2024/03/23 06:01:04;;;;;;;51.70;35.00;;;;;;;8.86;100.00;99030.13;103597;1254;97801;-76
2024/03/23 06:03:31;;;;;;;47.30;34.30;;;;;;;8.85;100.00;99025.34;103423;1250;138293;-76
2024/03/23 06:05:57;;;;;;;48.40;35.50;;;;;;;8.84;100.00;99019.16;103506;1253;107952;-76
2024/03/23 06:08:23;;;;;;;;;;;;;;;8.82;100.00;99018.39;103394;1254;138489;-76
2024/03/23 06:10:51;;;;;;;52.20;34.50;;;;;;;8.78;100.00;99020.08;103527;1254;107752;-75
2024/03/23 06:13:18;;;;;;;54.20;37.10;;;;;;;8.78;100.00;99018.88;103634;1251;97765;-76
2024/03/23 06:15:46;;;;;;;51.50;35.60;;;;;;;8.79;100.00;99020.39;103598;1249;138485;-75
2024/03/23 06:18:13;;;;;;;52.10;37.50;;;;;;;8.82;100.00;99027.21;103541;1255;107310;-75
2024/03/23 06:20:37;;;;;;;;;;;;;;;8.82;100.00;99027.03;103485;1254;139317;-76
2024/03/23 06:23:04;;;;;;;52.50;36.40;;;;;;;8.82;100.00;99019.77;103580;1250;107908;-76
2024/03/23 06:25:30;;;;;;;49.90;36.30;;;;;;;8.84;100.00;99021.04;103562;1254;97837;-76
2024/03/23 06:27:58;;;;;;;51.20;36.80;;;;;;;8.86;100.00;99018.70;103456;1252;110945;-76
2024/03/23 06:30:24;;;;;;;52.30;36.80;;;;;;;8.91;100.00;99014.48;103452;1251;107573;-76
2024/03/23 06:32:52;;;;;;;52.30;36.20;;;;;;;8.94;100.00;99008.98;103436;1251;139214;-76
2024/03/23 06:35:19;;;;;;;48.10;35.70;;;;;;;8.96;100.00;99014.41;103589;1250;107345;-76
2024/03/23 06:37:46;;;;;;;45.70;34.30;;;;;;;8.97;100.00;99009.73;103451;1251;139312;-74
2024/03/23 06:40:13;;;;;;;49.30;34.90;;;;;;;8.99;100.00;99011.36;103520;1253;111562;-74
2024/03/23 06:42:39;;;;;;;45.80;33.80;;;;;;;8.99;100.00;99007.20;103491;1251;107124;-75
2024/03/23 06:45:07;;;;;;;44.40;32.70;;;;;;;9.00;100.00;99003.67;103576;1251;140007;-74
2024/03/23 06:47:34;;;;;;;46.20;32.50;;;;;;;8.99;100.00;98998.70;104367;1253;107112;-74
2024/03/23 06:50:03;;;;;;;44.10;32.60;;;;;;;9.00;100.00;98996.58;103442;1250;138678;-76
2024/03/23 06:52:30;;;;;;;45.10;32.20;;;;;;;9.00;100.00;98987.38;104115;1250;110181;-74
2024/03/23 06:54:56;;;;;;;45.90;32.00;;;;;;;9.01;100.00;98980.20;103461;1251;107601;-75
2024/03/23 06:57:23;;;;;;;44.40;31.30;;;;;;;9.03;100.00;98980.85;103424;1253;138458;-77
2024/03/23 06:59:51;;;;;;;45.80;32.10;;;;;;;9.05;100.00;98981.25;103503;1251;106767;-75
2024/03/23 07:02:18;;;;;;;42.40;30.60;;;;;;;9.05;100.00;98981.09;103299;1250;139436;-81
2024/03/23 07:04:42;;;;;;;;;;;;;;;9.06;100.00;98984.86;103587;1253;110391;-73
2024/03/23 07:07:09;;;;;;;43.10;29.90;;;;;;;9.03;100.00;98984.27;103090;1257;108018;-72
2024/03/23 07:09:37;;;;;;;40.70;29.40;;;;;;;9.03;100.00;98979.09;103292;1254;138597;-73
2024/03/23 07:12:04;;;;;;;42.10;30.30;;;;;;;9.01;100.00;98979.19;103458;1256;107996;-72
2024/03/23 07:14:30;;;;;;;42.70;30.50;;;;;;;9.00;100.00;98981.30;103584;1253;138715;-75
2024/03/23 07:16:57;;;;;;;40.80;30.70;;;;;;;9.02;100.00;98978.81;103791;1253;110346;-74
2024/03/23 07:19:24;;;;;;;46.00;30.80;;;;;;;9.02;100.00;98976.71;103577;1256;109010;-75
2024/03/23 07:21:51;;;;;;;42.60;30.00;;;;;;;9.02;100.00;98971.52;103512;1253;138608;-75
2024/03/23 07:24:17;;;;;;;42.20;29.30;;;;;;;9.01;100.00;98969.48;103579;1255;107421;-75
2024/03/23 07:26:44;;;;;;;42.30;29.80;;;;;;;8.99;100.00;98969.21;103429;1255;138547;-75
2024/03/23 07:29:11;;;;;;;45.50;29.90;;;;;;;8.99;100.00;98969.25;103731;1256;112147;-75
2024/03/23 07:31:38;;;;;;;45.00;30.60;;;;;;;8.98;100.00;98969.80;103383;1253;138640;-74
2024/03/23 07:34:05;;;;;;;37.20;27.90;;;;;;;8.98;100.00;98966.86;103291;1253;98406;-75
2024/03/23 07:36:32;;;;;;;39.80;27.30;;;;;;;8.97;100.00;98968.95;103452;1253;106701;-75
2024/03/23 07:38:58;;;;;;;37.20;26.00;;;;;;;8.94;100.00;98969.09;103447;1252;138513;-74
2024/03/23 07:41:38;;;;;;;39.00;27.10;;;;;;;8.91;100.00;98960.92;103503;1257;111644;-73
2024/03/23 07:44:03;;;;;;;;;;;;;;;8.90;100.00;98956.48;103362;1256;139370;-74
2024/03/23 07:46:29;;;;;;;36.90;25.80;;;;;;;8.88;100.00;98954.30;103480;1253;97926;-75
2024/03/23 07:48:56;;;;;;;41.00;27.50;;;;;;;8.88;100.00;98950.33;103518;1252;107225;-72
2024/03/23 07:51:24;;;;;;;36.60;26.80;;;;;;;8.89;100.00;98940.55;103230;1253;138831;-75
2024/03/23 07:53:52;;;;;;;40.40;28.10;;;;;;;8.91;100.00;98938.02;103538;1253;110703;-74
2024/03/23 07:56:23;;;;;;;36.00;25.60;;;;;;;8.94;100.00;98938.59;103418;1253;138426;-74
2024/03/23 07:58:50;;;;;;;40.60;26.70;;;;;;;8.95;100.00;98938.34;103539;1253;98421;-73
2024/03/23 08:01:18;;;;;;;42.40;27.40;;;;;;;8.99;100.00;98928.32;103503;1253;107649;-73
2024/03/23 08:03:46;;;;;;;39.30;26.30;;;;;;;9.04;100.00;98930.67;103305;1253;138233;-74
2024/03/23 08:06:14;;;;;;;39.80;27.30;;;;;;;9.12;100.00;98928.76;103458;1253;111544;-72
2024/03/23 08:08:42;;;;;;;36.60;26.50;;;;;;;9.19;100.00;98925.51;104604;1253;138493;-72
2024/03/23 08:11:09;;;;;;;40.40;26.80;;;;;;;9.23;100.00;98925.26;104733;1252;96223;-72
2024/03/23 08:13:36;;;;;;;34.00;25.30;;;;;;;9.26;100.00;98923.20;104345;1256;138742;-71
2024/03/23 08:16:05;;;;;;;35.90;25.50;;;;;;;9.27;100.00;98921.61;104719;1253;95652;-72
2024/03/23 08:18:32;;;;;;;34.80;25.90;;;;;;;9.27;100.00;98915.52;103986;1253;111132;-73
2024/03/23 08:21:02;;;;;;;36.60;25.20;;;;;;;9.27;100.00;98915.73;104547;1253;138496;-75
2024/03/23 08:23:30;;;;;;;34.10;24.70;;;;;;;9.26;100.00;98915.58;104048;1253;98355;-76
2024/03/23 08:26:01;;;;;;;35.00;24.70;;;;;;;9.28;100.00;98906.45;103381;1253;138991;-75
2024/03/23 08:28:28;;;;;;;33.10;24.60;;;;;;;9.33;100.00;98903.46;103567;1253;97783;-74
2024/03/23 08:30:55;;;;;;;34.60;25.30;;;;;;;9.39;100.00;98904.91;103489;1253;110279;-74
2024/03/23 08:33:23;;;;;;;31.30;24.20;;;;;;;9.45;100.00;98902.16;103261;1256;139488;-73
2024/03/23 08:35:57;;;;;;;32.90;24.00;;;;;;;9.47;100.00;98892.35;103494;1256;97700;-75
2024/03/23 08:38:24;;;;;;;34.90;24.20;;;;;;;9.50;100.00;98880.60;103282;1253;138761;-73
2024/03/23 08:40:57;;;;;;;33.90;23.90;;;;;;;9.63;100.00;98875.90;103453;1253;97886;-74
2024/03/23 08:43:23;;;;;;;32.20;23.90;;;;;;;10.02;100.00;98865.77;103394;1253;111153;-73
2024/03/23 08:45:50;;;;;;;31.30;22.40;;;;;;;10.42;100.00;98857.13;103364;1253;138630;-73
2024/03/23 08:48:16;;;;;;;30.20;22.70;;;;;;;10.64;100.00;98859.06;103409;1253;97785;-73
2024/03/23 08:50:41;;;;;;;;;;;;;;;10.89;100.00;98854.02;103249;1256;138541;-73
2024/03/23 08:53:08;;;;;;;25.40;20.10;;;;;;;11.26;99.97;98847.94;103432;1253;98788;-73
2024/03/23 08:55:35;;;;;;;24.30;19.60;;;;;;;11.60;98.46;98847.88;103395;1257;110810;-73
2024/03/23 08:58:01;;;;;;;27.90;20.20;;;;;;;11.70;96.50;98850.45;103430;1253;107729;-74
2024/03/23 09:00:26;;;;;;;;;;;;;;;11.66;96.33;98840.69;103503;1253;97747;-74
2024/03/23 09:02:53;;;;;;;23.40;18.60;;;;;;;11.62;96.30;98835.71;103767;1254;123334;-74
2024/03/23 09:05:20;;;;;;;30.10;19.10;;;;;;;11.58;96.26;98826.95;104101;1253;97692;-74
2024/03/23 09:07:46;;;;;;;24.70;18.80;;;;;;;11.64;95.83;98828.64;103590;1257;138540;-77
2024/03/23 09:10:13;;;;;;;23.20;17.90;;;;;;;11.72;94.86;98823.86;103518;1253;108309;-76
2024/03/23 09:12:39;;;;;;;23.40;18.10;;;;;;;11.74;94.16;98815.02;103483;1253;99565;-75
2024/03/23 09:15:07;;;;;;;22.20;18.40;;;;;;;11.74;94.23;98809.40;103437;1253;138824;-74
2024/03/23 09:17:34;;;;;;;22.40;16.70;;;;;;;11.84;93.97;98807.48;103424;1253;98451;-74
2024/03/23 09:19:59;;;;;;;;;;;;;;;12.11;93.63;98799.53;103355;1253;138518;-73
2024/03/23 09:22:25;;;;;;;21.50;16.80;;;;;;;12.49;93.94;98795.42;103430;1253;107843;-73
2024/03/23 09:24:50;;;;;;;;;;;;;;;12.91;93.40;98785.73;103463;1257;97804;-73
2024/03/23 09:27:16;;;;;;;21.00;14.80;;;;;;;13.25;92.24;98786.35;103345;1253;124428;-73
2024/03/23 09:29:43;;;;;;;18.90;15.10;;;;;;;13.35;90.65;98779.77;103497;1253;97878;-74
2024/03/23 09:32:10;;;;;;;19.80;15.10;;;;;;;13.41;90.00;98777.09;103382;1253;138530;-73
2024/03/23 09:34:37;;;;;;;20.00;14.70;;;;;;;13.42;88.34;98779.80;103418;1254;107863;-73
2024/03/23 09:37:04;;;;;;;19.40;15.10;;;;;;;13.36;87.70;98771.48;103479;1254;97724;-73
2024/03/23 09:39:32;;;;;;;19.10;14.50;;;;;;;13.24;87.80;98769.10;103547;1256;139571;-73
2024/03/23 09:42:00;;;;;;;18.30;13.90;;;;;;;13.13;86.97;98777.34;103647;1252;97890;-70
2024/03/23 09:44:29;;;;;;;20.00;15.30;;;;;;;12.98;87.45;98776.56;103375;1254;138579;-74
2024/03/23 09:46:55;;;;;;;20.60;14.70;;;;;;;13.01;87.93;98770.93;103511;1254;107333;-70
2024/03/23 09:49:22;;;;;;;18.20;14.30;;;;;;;12.94;86.93;98769.67;103393;1258;99045;-73
2024/03/23 09:51:49;;;;;;;20.60;14.10;;;;;;;12.95;87.20;98760.52;103360;1254;138561;-72
2024/03/23 09:54:16;;;;;;;16.80;13.20;;;;;;;13.08;87.14;98746.93;103368;1254;97750;-70
2024/03/23 09:56:42;;;;;;;17.40;13.50;;;;;;;13.41;86.53;98741.24;103335;1255;138532;-71
2024/03/23 09:59:10;;;;;;;17.20;13.40;;;;;;;13.59;85.84;98736.52;103962;1256;107358;-71
2024/03/23 10:01:37;;;;;;;17.50;13.50;;;;;;;13.66;85.25;98728.92;103325;1257;138682;-71
2024/03/23 10:04:03;;;;;;;16.90;13.50;;;;;;;13.75;84.68;98721.85;103363;1254;106928;-68
2024/03/23 10:06:30;;;;;;;17.30;13.30;;;;;;;13.77;83.26;98713.15;103573;1254;98263;-69
2024/03/23 10:08:57;;;;;;;16.30;13.10;;;;;;;13.75;82.68;98704.01;103440;1254;138436;-69
2024/03/23 10:11:25;;;;;;;19.80;13.80;;;;;;;13.94;83.74;98690.08;103481;1254;107561;-68
2024/03/23 10:13:52;;;;;;;15.70;13.00;;;;;;;14.43;82.59;98681.34;103214;1259;138750;-68
2024/03/23 10:16:23;;;;;;;;;;;;;;;14.96;81.13;98679.53;103442;1254;107187;-71
2024/03/23 10:18:50;;;;;;;15.70;11.80;;;;;;;15.49;79.61;98675.28;103630;1254;97812;-71
2024/03/23 10:21:17;;;;;;;15.80;11.10;;;;;;;16.06;76.14;98672.23;103217;1254;138443;-71
2024/03/23 10:23:44;;;;;;;13.20;10.80;;;;;;;16.56;74.07;98653.44;103336;1258;107601;-71
2024/03/23 10:26:21;;;;;;;12.60;10.60;;;;;;;17.07;71.57;98642.08;103285;1254;138258;-71
2024/03/23 10:29:00;;;;;;;14.60;11.10;;;;;;;17.35;70.96;98632.31;103334;1254;106888;-71
2024/03/23 10:31:27;;;;;;;13.60;11.00;;;;;;;17.79;70.40;98625.11;103320;1254;97792;-70
2024/03/23 10:33:54;;;;;;;14.60;11.00;;;;;;;17.75;64.44;98629.01;103257;1254;137808;-71
2024/03/23 10:36:22;;;;;;;14.90;10.80;;;;;;;17.57;63.95;98619.41;103302;1254;108352;-75
2024/03/23 10:38:50;;;;;;;15.40;10.50;;;;;;;17.39;64.62;98609.23;103206;1254;137836;-73
2024/03/23 10:41:16;;;;;;;13.90;11.30;;;;;;;17.16;65.98;98604.76;103303;1254;107196;-80
2024/03/23 10:43:44;;;;;;;12.50;10.70;;;;;;;17.24;67.18;98600.34;103195;1254;139190;-68
2024/03/23 10:46:10;;;;;;;13.60;10.60;;;;;;;17.70;66.95;98600.73;103306;1256;110784;-68
2024/03/23 10:48:37;;;;;;;12.40;10.10;;;;;;;17.98;65.51;98592.15;103230;1259;106838;-70
2024/03/23 10:51:05;;;;;;;12.40;10.80;;;;;;;18.18;65.40;98592.17;103219;1257;137913;-71
2024/03/23 10:53:36;;;;;;;13.00;10.40;;;;;;;18.47;65.19;98584.05;103243;1255;107671;-70
2024/03/23 10:56:03;;;;;;;11.50;9.70;;;;;;;18.62;63.33;98576.98;104076;1254;138883;-69
2024/03/23 10:58:32;;;;;;;13.70;9.60;;;;;;;18.62;63.97;98569.40;103338;1254;111455;-70
2024/03/23 11:00:59;;;;;;;16.20;9.60;;;;;;;18.89;61.74;98556.76;103287;1254;108083;-76
2024/03/23 11:03:37;;;;;;;14.20;9.90;;;;;;;18.92;59.64;98548.38;103542;1254;137633;-78
2024/03/23 11:06:08;;;;;;;14.00;9.40;;;;;;;18.72;58.64;98551.84;103859;1254;107452;-77
2024/03/23 11:08:36;;;;;;;11.80;8.60;;;;;;;18.57;59.27;98554.29;103494;1254;137796;-77
2024/03/23 11:11:17;;;;;;;13.50;9.80;;;;;;;18.56;60.24;98553.80;103414;1259;111272;-77
2024/03/23 11:13:44;;;;;;;11.40;9.30;;;;;;;18.40;59.68;98556.55;103568;1259;137925;-75
2024/03/23 11:16:23;;;;;;;13.90;9.60;;;;;;;18.14;59.19;98551.29;103427;1254;97708;-77